Time;durP1;ratioP1;P1;durP2;ratioP2;P2;SDS_P1;SDS_P2;PMS_P1;PMS_P2;Temp;Humidity;BMP_temperature;BMP_pressure;BME280_temperature;BME280_humidity;BME280_pressure;Samples;Min_cycle;Max_cycle;Signal;HPM_P1;HPM_P2
2023/01/24 00:02:30;;;;;;;10.38;4.55;;;4.60;99.90;;;4.31;100.00;102994.41;5143562;28;20061;-72
2023/01/24 00:05:02;;;;;;;8.73;4.00;;;4.60;99.90;;;4.26;100.00;102998.22;5144816;28;20408;-72
2023/01/24 00:07:35;;;;;;;11.52;4.82;;;4.60;99.90;;;4.21;100.00;102996.88;5144578;28;20126;-73
2023/01/24 00:10:11;;;;;;;9.80;4.25;;;4.60;99.90;;;4.21;100.00;102996.88;5143162;28;20046;-73
2023/01/24 00:12:44;;;;;;;9.40;4.32;;;4.60;99.90;;;4.21;100.00;102999.44;5142972;28;20046;-73
2023/01/24 00:15:17;;;;;;;8.73;3.80;;;4.60;99.90;;;4.21;100.00;103002.03;5143319;28;20051;-73
2023/01/24 00:17:49;;;;;;;8.18;3.95;;;4.60;99.90;;;4.20;100.00;103000.22;5144224;28;20058;-72
2023/01/24 00:20:21;;;;;;;6.95;3.50;;;4.60;99.90;;;4.15;100.00;102999.78;5144489;28;20510;-72
2023/01/24 00:22:53;;;;;;;8.40;4.20;;;4.50;99.90;;;4.14;100.00;102999.63;5143065;28;20054;-72
2023/01/24 00:25:26;;;;;;;7.25;3.60;;;4.50;99.90;;;4.16;100.00;103003.25;5142952;28;20050;-73
2023/01/24 00:27:59;;;;;;;7.60;3.15;;;4.50;99.90;;;4.17;100.00;103007.66;5143265;28;20053;-71
2023/01/24 00:30:31;;;;;;;8.82;4.13;;;4.50;99.90;;;4.17;100.00;103015.41;5142883;28;20043;-72
2023/01/24 00:33:04;;;;;;;11.10;4.57;;;4.50;99.90;;;4.17;100.00;103012.81;5143000;28;20051;-72
2023/01/24 00:35:36;;;;;;;9.30;4.20;;;4.50;99.90;;;4.18;100.00;103012.09;5329642;23;20043;-65
2023/01/24 00:38:09;;;;;;;9.82;4.20;;;4.50;99.90;;;4.16;100.00;103011.91;5138929;28;20512;-65
2023/01/24 00:40:42;;;;;;;9.23;4.40;;;4.50;99.90;;;4.14;100.00;103016.03;5139014;28;20142;-64
2023/01/24 00:43:15;;;;;;;9.15;4.43;;;4.50;99.90;;;4.14;100.00;103015.13;5122990;29;20051;-65
2023/01/24 00:45:47;;;;;;;10.13;4.78;;;4.50;99.90;;;4.10;100.00;103008.75;5124041;28;20051;-65
2023/01/24 00:48:20;;;;;;;8.88;4.22;;;4.50;99.90;;;4.13;100.00;103009.06;5138672;28;20055;-66
2023/01/24 00:50:53;;;;;;;7.65;3.75;;;4.50;99.90;;;4.09;100.00;103007.84;5138739;28;20047;-65
2023/01/24 00:53:26;;;;;;;8.13;3.85;;;4.50;99.90;;;3.98;100.00;103003.34;5122641;29;20039;-64
2023/01/24 00:55:59;;;;;;;8.68;4.28;;;4.40;99.90;;;3.96;100.00;103004.84;5138658;28;20047;-65
2023/01/24 00:58:33;;;;;;;7.88;4.07;;;4.40;99.90;;;3.96;100.00;103002.25;5123789;28;20493;-64
2023/01/24 01:01:05;;;;;;;8.15;3.95;;;4.40;99.90;;;4.01;100.00;103003.63;5123825;29;20043;-65
2023/01/24 01:03:37;;;;;;;7.28;3.15;;;4.40;99.90;;;4.06;100.00;103012.72;5122420;29;20043;-65
2023/01/24 01:06:15;;;;;;;5.93;3.10;;;4.40;99.90;;;4.10;100.00;103008.75;5123987;28;20047;-65
2023/01/24 01:08:48;;;;;;;7.43;3.45;;;4.40;99.90;;;4.09;100.00;103010.41;5123978;28;20062;-67
2023/01/24 01:11:22;;;;;;;6.85;3.50;;;4.40;99.90;;;4.11;100.00;103015.75;5123782;29;20051;-65
2023/01/24 01:13:55;;;;;;;7.15;3.42;;;4.50;99.90;;;4.15;100.00;103016.94;5122387;29;20039;-65
2023/01/24 01:16:28;;;;;;;7.55;3.70;;;4.50;99.90;;;4.16;100.00;103019.66;5123488;28;20130;-65
2023/01/24 01:19:01;;;;;;;7.95;3.78;;;4.50;99.90;;;4.13;100.00;103014.22;5138370;28;20054;-65
2023/01/24 01:21:35;;;;;;;7.07;3.45;;;4.50;99.90;;;4.18;100.00;103027.56;5124459;29;20054;-64
2023/01/24 01:26:55;;;;;;;6.45;3.40;;;4.50;99.90;;;4.07;100.00;103022.28;5174753;23;20046;-63
2023/01/24 01:29:27;;;;;;;6.88;3.55;;;4.50;99.90;;;4.08;100.00;103029.25;5143496;28;20047;-63
2023/01/24 01:32:00;;;;;;;8.02;3.83;;;4.50;99.90;;;4.07;100.00;103035.19;5159474;28;20055;-63
2023/01/24 01:34:32;;;;;;;6.75;3.53;;;4.50;99.90;;;4.05;100.00;103025.50;5144264;28;20140;-62
2023/01/24 01:37:04;;;;;;;9.43;4.05;;;4.40;99.90;;;3.98;100.00;103039.47;5158984;28;20043;-62
2023/01/24 01:39:36;;;;;;;7.55;3.28;;;4.40;99.90;;;3.93;100.00;103030.38;5157601;28;20507;-63
2023/01/24 01:42:10;;;;;;;7.13;3.30;;;4.40;99.90;;;3.89;100.00;103032.50;5158379;28;20062;-63
2023/01/24 01:44:46;;;;;;;6.57;3.28;;;4.30;99.90;;;3.81;100.00;103029.16;5143879;28;20053;-63
2023/01/24 01:47:27;;;;;;;7.50;3.70;;;4.30;99.90;;;3.74;100.00;103030.25;5141916;28;20047;-62
2023/01/24 01:50:04;;;;;;;6.95;3.72;;;4.20;99.90;;;3.77;100.00;103021.88;5157825;28;20050;-63
2023/01/24 01:52:40;;;;;;;7.68;3.53;;;4.20;99.90;;;3.78;100.00;103022.06;5158184;28;20058;-63
2023/01/24 01:55:17;;;;;;;5.97;3.08;;;4.20;99.90;;;3.76;100.00;103014.91;5143410;28;20039;-62
2023/01/24 01:57:53;;;;;;;6.47;2.95;;;4.20;99.90;;;3.74;100.00;103013.84;5143483;28;20047;-62
2023/01/24 02:00:27;;;;;;;4.10;2.42;;;4.20;99.90;;;3.76;100.00;103020.06;5145846;28;20051;-62
2023/01/24 02:05:58;;;;;;;6.13;2.92;;;4.20;99.90;;;3.86;100.00;103037.38;5147002;28;20072;-62
2023/01/24 02:08:33;;;;;;;9.48;3.55;;;4.20;99.90;;;3.81;100.00;103035.25;5162124;28;20051;-62
2023/01/24 02:16:44;;;;;;;6.88;2.97;;;4.30;99.90;;;3.88;100.00;103031.59;5146586;28;20428;-62
2023/01/24 02:19:38;;;;;;;7.78;3.85;;;4.30;99.90;;;3.89;100.00;103037.66;5146992;28;20533;-63
2023/01/24 02:22:17;;;;;;;7.05;3.67;;;4.30;99.90;;;3.90;100.00;103030.06;5147686;28;20046;-62
2023/01/24 02:25:03;;;;;;;7.05;3.22;;;4.30;99.90;;;3.78;100.00;103034.03;5147867;28;20125;-62
2023/01/24 02:27:36;;;;;;;7.90;3.45;;;4.30;99.90;;;3.76;100.00;103031.28;5146707;28;20058;-62
2023/01/24 02:30:11;;;;;;;6.80;2.85;;;4.20;99.90;;;3.80;100.00;103029.94;5145707;28;20469;-62
2023/01/24 02:32:43;;;;;;;5.50;3.00;;;4.20;99.90;;;3.87;100.00;103024.59;5162013;28;20050;-62
2023/01/24 02:35:27;;;;;;;6.82;3.38;;;4.20;99.90;;;3.89;100.00;103028.25;5161838;28;20123;-61
2023/01/24 02:38:01;;;;;;;7.97;3.55;;;4.30;99.90;;;3.90;100.00;103019.72;5146556;28;20046;-62
2023/01/24 02:40:35;;;;;;;7.20;3.78;;;4.30;99.90;;;3.90;100.00;103023.97;5146217;28;20126;-62
2023/01/24 02:43:12;;;;;;;8.55;3.95;;;4.30;99.90;;;3.89;100.00;103023.06;5161403;28;20384;-62
2023/01/24 02:45:44;;;;;;;9.05;3.60;;;4.30;99.90;;;3.88;100.00;103013.53;5161892;28;20057;-63
2023/01/24 02:48:16;;;;;;;5.57;3.25;;;4.30;99.90;;;3.92;100.00;103031.13;5161249;28;20054;-62
2023/01/24 02:53:39;;;;;;;9.02;3.80;;;4.30;99.90;;;4.01;100.00;103034.59;5146222;28;20039;-62
2023/01/24 02:59:07;;;;;;;6.43;3.38;;;4.40;99.90;;;4.01;100.00;103021.69;5090884;28;20160;-63
2023/01/24 03:01:41;;;;;;;6.57;3.13;;;4.30;99.90;;;4.02;100.00;103026.09;5145150;28;20039;-62
2023/01/24 03:04:15;;;;;;;7.95;3.85;;;4.40;99.90;;;4.01;100.00;103029.44;5161150;28;20054;-63
2023/01/24 03:06:48;;;;;;;7.00;3.30;;;4.30;99.90;;;4.02;100.00;103030.34;5161105;28;20145;-63
2023/01/24 03:09:33;;;;;;;6.38;3.60;;;4.40;99.90;;;3.99;100.00;103030.06;5160251;28;20051;-62
2023/01/24 03:34:57;;;;;;;7.47;3.15;;;4.10;99.90;;;3.62;100.00;103018.72;5144278;28;20126;-62
2023/01/24 03:40:26;;;;;;;7.10;3.25;;;4.10;99.90;;;3.64;100.00;103005.97;5133909;28;20069;-61
2023/01/24 03:43:00;;;;;;;5.18;3.00;;;4.00;99.90;;;3.66;100.00;103012.22;5160452;28;20046;-61
2023/01/24 03:45:39;;;;;;;7.38;2.95;;;4.00;99.90;;;3.69;100.00;103012.50;5144095;28;20055;-62
2023/01/24 03:48:25;;;;;;;6.32;2.85;;;4.10;99.90;;;3.70;100.00;103015.22;5160063;28;20461;-62
2023/01/24 03:53:48;;;;;;;7.00;3.25;;;4.10;99.90;;;3.71;100.00;103005.81;5144489;28;20392;-62
2023/01/24 03:56:21;;;;;;;5.32;2.88;;;4.10;99.90;;;3.71;100.00;103013.53;5160178;28;20411;-62
2023/01/24 03:59:00;;;;;;;9.13;3.45;;;4.10;99.90;;;3.69;100.00;103009.91;5159775;28;20062;-62
2023/01/24 04:01:37;;;;;;;6.65;3.30;;;4.10;99.90;;;3.72;100.00;103018.88;5143577;28;20066;-62
2023/01/24 04:05:11;;;;;;;6.93;2.88;;;4.10;99.90;;;3.75;100.00;103014.00;5160211;28;20053;-62
2023/01/24 04:07:19;;;;;;;6.03;2.88;;;4.10;99.90;;;3.80;100.00;103022.19;5159631;28;20058;-63
2023/01/24 04:09:51;;;;;;;7.85;3.80;;;4.20;99.90;;;3.69;100.00;103018.56;5143111;28;20046;-62
2023/01/24 04:12:24;;;;;;;9.88;4.88;;;4.10;99.90;;;3.69;100.00;103022.81;5159712;28;20389;-61
2023/01/24 04:14:57;;;;;;;6.95;3.60;;;4.10;99.90;;;3.66;100.00;103022.53;5159883;28;20146;-62
2023/01/24 04:17:29;;;;;;;8.73;3.88;;;4.00;99.90;;;3.66;100.00;103017.38;5144613;28;20496;-62
2023/01/24 04:20:03;;;;;;;7.40;3.45;;;4.00;99.90;;;3.64;100.00;103018.88;5164658;28;20112;-62
2023/01/24 04:22:36;;;;;;;6.82;3.58;;;4.00;99.90;;;3.54;100.00;103028.28;5179777;28;20057;-63
2023/01/24 04:25:10;;;;;;;7.25;3.50;;;4.00;99.90;;;3.53;100.00;103016.16;5164243;28;20070;-63
2023/01/24 04:27:46;;;;;;;7.85;3.72;;;4.00;99.90;;;3.50;100.00;103023.59;5164590;28;20406;-62
2023/01/24 04:30:20;;;;;;;6.55;3.53;;;3.90;99.90;;;3.50;100.00;103020.09;5164352;28;20066;-62
2023/01/24 04:32:56;;;;;;;6.85;3.10;;;3.90;99.90;;;3.49;100.00;103024.34;5163242;28;20046;-62
2023/01/24 04:35:32;;;;;;;5.50;3.00;;;3.90;99.90;;;3.53;100.00;103017.84;5159918;28;20133;-62
2023/01/24 04:38:05;;;;;;;5.60;3.13;;;3.90;99.90;;;3.61;100.00;103023.75;5163301;28;20108;-62
2023/01/24 04:40:59;;;;;;;7.65;3.40;;;4.00;99.90;;;3.65;100.00;103018.09;5162952;28;20567;-62
2023/01/24 04:43:32;;;;;;;6.07;3.40;;;4.00;99.90;;;3.66;100.00;103022.53;5163273;28;20130;-62
2023/01/24 04:46:05;;;;;;;6.20;3.17;;;4.00;99.90;;;3.62;100.00;103017.81;5164546;28;20124;-62
2023/01/24 04:48:57;;;;;;;6.63;2.90;;;4.00;99.90;;;3.62;100.00;103023.88;5162441;28;20054;-62
2023/01/24 04:51:42;;;;;;;7.10;3.55;;;4.00;99.90;;;3.65;100.00;103015.53;5162675;28;20138;-62
2023/01/24 04:54:16;;;;;;;6.38;3.15;;;4.00;99.90;;;3.65;100.00;103010.38;5163341;28;20077;-62
2023/01/24 04:56:48;;;;;;;6.85;3.00;;;4.00;99.90;;;3.64;100.00;103018.88;5178885;28;20047;-63
2023/01/24 04:59:21;;;;;;;5.97;3.28;;;4.00;99.90;;;3.62;100.00;103015.25;5162297;28;20081;-62
2023/01/24 05:01:55;;;;;;;5.65;3.28;;;4.00;99.90;;;3.63;100.00;103022.22;5164096;28;20059;-62
2023/01/24 05:04:36;;;;;;;5.15;3.03;;;4.00;99.90;;;3.60;100.00;103014.19;5162753;28;20045;-62
2023/01/24 05:07:10;;;;;;;7.00;3.28;;;4.00;99.90;;;3.60;100.00;103017.69;5174713;28;20054;-62
2023/01/24 05:09:42;;;;;;;6.57;3.25;;;4.00;99.90;;;3.59;100.00;103014.94;5142321;28;20098;-63
2023/01/24 05:12:17;;;;;;;6.88;3.45;;;3.90;99.90;;;3.58;100.00;103016.59;5158581;28;20081;-61
2023/01/24 05:14:50;;;;;;;6.45;3.10;;;4.00;99.90;;;3.57;100.00;103017.34;5142403;28;20405;-62
2023/01/24 05:17:22;;;;;;;6.70;3.42;;;3.90;99.90;;;3.58;100.00;103018.25;5142214;28;20043;-62
2023/01/24 05:19:54;;;;;;;8.13;3.90;;;3.90;99.90;;;3.58;100.00;103016.59;5158396;28;20051;-62
2023/01/24 05:22:29;;;;;;;7.90;3.50;;;4.00;99.90;;;3.56;100.00;103019.78;5158712;28;20049;-62
2023/01/24 05:25:01;;;;;;;6.88;3.50;;;3.90;99.90;;;3.59;100.00;103021.03;5142386;28;20051;-61
2023/01/24 05:27:33;;;;;;;6.82;3.50;;;3.90;99.90;;;3.60;100.00;103016.78;5143709;28;20046;-62
2023/01/24 05:30:10;;;;;;;7.13;3.65;;;4.00;99.90;;;3.58;100.00;103020.84;5142366;28;20051;-62
2023/01/24 05:32:42;;;;;;;7.45;3.10;;;4.00;99.90;;;3.52;100.00;103018.56;5158072;28;20049;-62
2023/01/24 05:35:15;;;;;;;6.03;3.17;;;3.90;99.90;;;3.51;100.00;103027.06;5157933;28;20512;-62
2023/01/24 05:37:51;;;;;;;7.45;3.08;;;3.90;99.90;;;3.52;100.00;103027.25;5158593;28;20534;-62
2023/01/24 05:40:24;;;;;;;7.85;3.63;;;3.90;99.90;;;3.49;100.00;103037.25;5141832;28;20694;-62
2023/01/24 05:42:56;;;;;;;6.43;3.13;;;3.90;99.90;;;3.50;100.00;103031.31;5143848;28;20039;-62
2023/01/24 05:45:28;;;;;;;6.70;3.38;;;3.90;99.90;;;3.52;100.00;103042.72;5158558;28;20586;-62
2023/01/24 05:48:01;;;;;;;8.35;3.88;;;3.90;99.90;;;3.43;100.00;103038.31;5141952;28;20062;-62
2023/01/24 05:50:34;;;;;;;6.90;3.33;;;3.90;99.90;;;3.36;100.00;103031.63;5157735;28;20054;-62
2023/01/24 05:53:17;;;;;;;7.95;3.65;;;3.80;99.90;;;3.35;100.00;103034.97;5142032;28;20586;-63
2023/01/24 05:55:56;;;;;;;7.32;3.88;;;3.80;99.90;;;3.39;100.00;103037.09;5143505;28;20538;-62
2023/01/24 05:58:35;;;;;;;5.75;3.08;;;3.80;99.90;;;3.39;100.00;103047.44;5141772;28;20046;-62
2023/01/24 06:01:18;;;;;;;9.73;3.72;;;3.80;99.90;;;3.43;100.00;103049.53;5157969;28;20069;-62
2023/01/24 06:03:53;;;;;;;7.55;4.05;;;3.80;99.90;;;3.37;100.00;103045.44;5158065;28;20128;-63
2023/01/24 06:06:26;;;;;;;6.38;3.20;;;3.80;99.90;;;3.32;100.00;103055.28;5158333;28;20065;-62
2023/01/24 06:08:59;;;;;;;6.47;3.47;;;3.80;99.90;;;3.33;100.00;103051.06;5142156;28;20047;-62
2023/01/24 06:11:33;;;;;;;5.88;2.90;;;3.80;99.90;;;3.38;100.00;103053.31;5158719;28;20125;-63
2023/01/24 06:14:12;;;;;;;5.75;3.03;;;3.80;99.90;;;3.43;100.00;103052.09;5158352;28;20051;-62
2023/01/24 06:16:46;;;;;;;6.70;3.35;;;3.80;99.90;;;3.46;100.00;103049.84;5175729;28;20050;-61
2023/01/24 06:19:20;;;;;;;7.63;4.15;;;3.80;99.90;;;3.49;100.00;103044.97;5161600;28;20305;-62
2023/01/24 06:22:02;;;;;;;5.90;2.97;;;3.90;99.90;;;3.51;100.00;103055.44;5162027;28;20046;-62
2023/01/24 06:24:39;;;;;;;7.68;3.95;;;3.90;99.90;;;3.49;100.00;103052.72;5161777;28;20077;-62
2023/01/24 06:27:27;;;;;;;7.57;3.60;;;3.90;99.90;;;3.40;100.00;103059.56;5162989;28;20049;-61
2023/01/24 06:30:01;;;;;;;7.30;3.58;;;3.80;99.90;;;3.37;100.00;103066.06;5162923;28;20051;-62
2023/01/24 06:32:43;;;;;;;6.80;3.20;;;3.80;99.90;;;3.38;100.00;103066.19;5163450;28;20133;-62
2023/01/24 06:35:24;;;;;;;5.95;2.95;;;3.80;99.90;;;3.39;100.00;103073.22;5163838;28;20051;-62
2023/01/24 06:37:58;;;;;;;6.68;3.50;;;3.80;99.90;;;3.36;100.00;103075.47;5164005;28;20042;-62
2023/01/24 06:40:31;;;;;;;6.40;3.00;;;3.80;99.90;;;3.36;100.00;103072.88;5163370;28;20038;-62
2023/01/24 06:43:04;;;;;;;6.50;3.05;;;3.80;99.90;;;3.36;100.00;103078.03;5164180;28;20049;-62
2023/01/24 06:45:36;;;;;;;7.85;3.50;;;3.80;99.90;;;3.39;100.00;103086.09;5180179;28;20050;-62
2023/01/24 06:48:08;;;;;;;5.25;2.60;;;3.80;99.90;;;3.43;100.00;103083.06;5167073;28;20523;-62
2023/01/24 06:50:40;;;;;;;5.50;3.05;;;3.80;99.90;;;3.48;100.00;103089.59;5167057;28;20077;-63
2023/01/24 06:53:14;;;;;;;7.82;3.63;;;3.80;99.90;;;3.50;100.00;103090.63;5166368;28;20038;-62
2023/01/24 06:55:47;;;;;;;6.97;3.50;;;3.80;99.90;;;3.51;100.00;103094.13;5166752;28;20066;-62
2023/01/24 06:58:19;;;;;;;6.32;3.40;;;3.90;99.90;;;3.52;100.00;103096.88;5166356;28;20042;-64
2023/01/24 07:00:53;;;;;;;6.03;2.92;;;3.90;99.90;;;3.44;100.00;103092.59;5176159;23;20054;-71
2023/01/24 07:03:26;;;;;;;6.60;3.00;;;3.80;99.90;;;3.42;100.00;103096.72;5137297;28;20055;-71
2023/01/24 07:05:58;;;;;;;7.45;3.50;;;3.80;99.90;;;3.39;100.00;103093.84;5125785;28;20051;-57
2023/01/24 07:08:30;;;;;;;6.85;3.60;;;3.80;99.90;;;3.38;100.00;103086.84;5125959;28;20047;-58
2023/01/24 07:11:03;;;;;;;7.00;3.42;;;3.80;99.90;;;3.42;100.00;103098.38;5125254;29;20043;-61
2023/01/24 07:13:35;;;;;;;12.43;4.55;;;3.80;99.90;;;3.42;100.00;103099.28;5140524;28;20047;-61
2023/01/24 07:16:08;;;;;;;7.32;3.40;;;3.80;99.90;;;3.44;100.00;103097.75;5125573;29;20055;-61
2023/01/24 07:18:41;;;;;;;8.27;3.97;;;3.80;99.90;;;3.41;100.00;103100.03;5125378;28;20054;-58
2023/01/24 07:21:14;;;;;;;10.80;4.53;;;3.80;99.90;;;3.46;100.00;103106.59;5125024;28;20047;-58
2023/01/24 07:23:48;;;;;;;8.27;3.40;;;3.80;99.90;;;3.51;100.00;103109.59;5125335;28;20057;-58
2023/01/24 07:26:23;;;;;;;10.35;3.50;;;3.90;99.90;;;3.58;100.00;103117.19;5125252;29;20058;-58
2023/01/24 07:28:55;;;;;;;7.25;3.38;;;3.90;99.90;;;3.62;100.00;103110.69;5123858;28;20043;-57
2023/01/24 07:31:27;;;;;;;8.90;3.47;;;3.90;99.90;;;3.66;100.00;103117.97;5125081;29;20489;-57
2023/01/24 07:33:59;;;;;;;5.35;2.53;;;3.90;99.90;;;3.68;100.00;103114.78;5125445;28;20389;-57
2023/01/24 07:36:31;;;;;;;7.63;3.50;;;4.00;99.90;;;3.68;100.00;103129.34;5125161;29;20043;-57
2023/01/24 07:39:04;;;;;;;5.80;2.92;;;4.00;99.90;;;3.62;100.00;103121.00;5124958;28;20099;-57
2023/01/24 07:41:38;;;;;;;5.20;3.35;;;3.90;99.90;;;3.59;100.00;103129.34;5124968;29;20051;-57
2023/01/24 07:44:13;;;;;;;8.45;3.67;;;3.90;99.90;;;3.52;100.00;103127.84;5125268;28;20043;-57
2023/01/24 07:46:45;;;;;;;6.07;3.28;;;3.90;99.90;;;3.55;100.00;103132.38;5124993;29;20047;-57
2023/01/24 07:49:17;;;;;;;7.38;3.08;;;3.90;99.90;;;3.61;100.00;103137.25;5139721;28;20397;-57
2023/01/24 07:51:49;;;;;;;4.35;2.65;;;3.90;99.90;;;3.63;100.00;103136.63;5124891;29;20073;-57
2023/01/24 07:54:21;;;;;;;5.53;3.05;;;4.00;99.90;;;3.64;100.00;103147.84;5124873;29;20054;-57
2023/01/24 07:56:54;;;;;;;5.68;2.95;;;4.00;99.90;;;3.66;100.00;103136.03;5122745;28;20059;-56
2023/01/24 07:59:26;;;;;;;5.40;2.78;;;4.00;99.90;;;3.71;100.00;103139.97;5133510;28;20122;-57
2023/01/24 08:01:58;;;;;;;6.93;3.00;;;4.00;99.90;;;3.73;100.00;103149.69;5132254;28;20050;-54
2023/01/24 08:04:31;;;;;;;6.03;3.28;;;4.00;99.90;;;3.74;100.00;103148.94;5124652;28;20456;-55
2023/01/24 08:07:18;;;;;;;4.88;2.65;;;4.00;99.90;;;3.78;100.00;103144.97;5124551;28;20055;-55
2023/01/24 08:09:50;;;;;;;5.80;2.50;;;4.10;99.90;;;3.80;100.00;103151.22;5124570;28;20043;-55
2023/01/24 08:12:23;;;;;;;4.72;2.40;;;4.10;99.90;;;3.80;100.00;103148.63;5124513;28;20066;-55
2023/01/24 08:14:55;;;;;;;6.07;2.95;;;4.10;99.90;;;3.84;100.00;103157.56;5124366;28;20075;-55
2023/01/24 08:17:27;;;;;;;6.28;3.28;;;4.10;99.90;;;3.83;100.00;103160.91;5142604;28;20054;-55
2023/01/24 08:19:59;;;;;;;5.45;2.88;;;4.20;99.90;;;3.83;100.00;103160.91;5144343;28;20047;-55
2023/01/24 08:22:32;;;;;;;7.55;3.72;;;4.20;99.90;;;3.83;100.00;103160.91;5144291;28;20041;-55
2023/01/24 08:25:05;;;;;;;5.88;3.38;;;4.20;99.90;;;3.80;100.00;103166.69;5144264;28;20407;-55
2023/01/24 08:27:41;;;;;;;5.60;3.20;;;4.20;99.90;;;3.78;100.00;103165.59;5144067;28;20051;-54
2023/01/24 08:30:15;;;;;;;5.32;2.75;;;4.20;99.90;;;3.78;100.00;103160.44;5138611;28;20463;-55
2023/01/24 08:32:47;;;;;;;5.85;2.92;;;4.20;99.90;;;3.79;100.00;103159.72;5124090;28;20759;-56
2023/01/24 08:35:19;;;;;;;5.90;3.17;;;4.20;99.90;;;3.76;100.00;103161.97;5124700;28;20419;-56
2023/01/24 08:37:51;;;;;;;6.60;2.92;;;4.10;99.90;;;3.78;100.00;103163.97;5123963;28;20129;-56
2023/01/24 08:40:24;;;;;;;5.80;3.50;;;4.10;99.90;;;3.76;100.00;103164.56;5123402;28;20090;-56
2023/01/24 08:43:01;;;;;;;6.38;3.13;;;4.10;99.90;;;3.74;100.00;103158.34;5123888;28;20043;-56
2023/01/24 08:45:33;;;;;;;5.97;2.72;;;4.10;99.90;;;4.13;100.00;103163.03;5123920;28;20050;-56
2023/01/24 08:48:05;;;;;;;7.70;3.67;;;4.50;99.90;;;4.19;100.00;103163.66;5123619;28;20055;-55
2023/01/24 08:50:38;;;;;;;7.35;3.08;;;4.60;99.90;;;4.14;100.00;103164.84;5123277;28;20063;-57
2023/01/24 08:53:10;;;;;;;5.72;3.20;;;4.60;99.90;;;4.12;100.00;103167.28;5138427;28;20043;-57
2023/01/24 08:55:42;;;;;;;5.43;2.97;;;4.50;99.90;;;4.09;100.00;103178.22;5123694;28;20527;-57
2023/01/24 08:58:15;;;;;;;4.65;2.65;;;4.50;99.90;;;4.08;100.00;103176.41;5123669;28;20047;-56
2023/01/24 09:00:48;;;;;;;4.88;2.72;;;4.50;99.90;;;4.11;100.00;103178.38;5122907;28;20055;-56
2023/01/24 09:03:20;;;;;;;4.75;2.65;;;4.40;99.90;;;4.14;100.00;103181.25;5129118;28;20043;-56
2023/01/24 09:05:57;;;;;;;5.65;2.92;;;4.50;99.90;;;4.19;100.00;103184.31;5138926;28;20730;-55
2023/01/24 09:08:29;;;;;;;7.38;2.80;;;4.50;99.90;;;4.20;100.00;103187.03;5141244;28;20043;-56
2023/01/24 09:11:02;;;;;;;5.50;3.28;;;4.50;99.90;;;4.17;100.00;103196.13;5128285;28;20050;-55
2023/01/24 09:13:35;;;;;;;6.03;3.05;;;4.50;99.90;;;4.18;100.00;103187.66;5122118;28;20074;-56
2023/01/24 09:16:08;;;;;;;7.03;3.00;;;4.50;99.90;;;4.16;100.00;103183.97;5130541;28;20067;-56
2023/01/24 09:18:40;;;;;;;7.63;4.05;;;4.50;99.90;;;4.16;100.00;103189.16;5133843;28;20138;-55
2023/01/24 09:21:12;;;;;;;5.00;3.17;;;4.50;99.90;;;4.13;100.00;103194.94;5135808;28;20050;-56
2023/01/24 09:23:44;;;;;;;4.10;2.72;;;4.50;99.90;;;4.07;100.00;103190.06;5142696;28;20321;-56
2023/01/24 09:26:16;;;;;;;5.35;3.30;;;4.40;99.90;;;4.11;100.00;103201.63;5140724;28;20075;-55
2023/01/24 09:28:50;;;;;;;5.88;3.20;;;4.50;99.90;;;4.18;100.00;103197.97;5147493;28;20133;-57
2023/01/24 09:31:22;;;;;;;6.03;3.17;;;4.60;99.90;;;4.17;100.00;103194.44;5142615;28;20439;-56
2023/01/24 09:33:54;;;;;;;7.63;3.58;;;4.60;99.90;;;4.08;100.00;103197.06;5143065;28;20038;-56
2023/01/24 09:36:26;;;;;;;7.38;3.55;;;4.50;99.90;;;4.06;100.00;103197.66;5142840;28;20049;-56
2023/01/24 09:38:58;;;;;;;6.22;3.75;;;4.50;99.90;;;4.04;100.00;103199.16;5142453;28;20070;-57
2023/01/24 09:41:50;;;;;;;22.58;9.18;;;4.40;99.90;;;4.04;100.00;103200.09;5142628;28;20053;-55
2023/01/24 09:44:35;;;;;;;20.23;8.52;;;4.40;99.90;;;4.08;100.00;103202.22;5142807;28;20049;-57
2023/01/24 09:47:20;;;;;;;16.65;8.63;;;4.40;99.90;;;4.05;100.00;103203.59;5142744;28;20458;-55
2023/01/24 09:49:59;;;;;;;11.45;6.25;;;4.40;99.90;;;4.05;100.00;103206.19;5142449;28;20431;-56
2023/01/24 09:52:36;;;;;;;10.02;5.57;;;4.40;99.90;;;4.08;100.00;103206.47;5142850;28;20046;-56
2023/01/24 09:55:14;;;;;;;8.23;4.40;;;4.40;99.90;;;4.15;100.00;103205.41;5143268;28;20051;-56
2023/01/24 09:57:54;;;;;;;5.82;3.30;;;4.40;99.90;;;4.15;100.00;103197.66;5142581;28;20046;-55
2023/01/24 10:00:31;;;;;;;7.00;3.83;;;4.50;99.90;;;4.09;100.00;103201.44;5142489;28;20050;-55
2023/01/24 10:03:04;;;;;;;5.75;2.97;;;4.50;99.90;;;3.96;100.00;103203.56;5143214;28;20046;-55
2023/01/24 10:05:40;;;;;;;6.25;3.05;;;4.40;99.90;;;3.94;100.00;103205.09;5142225;28;20470;-55
2023/01/24 10:08:28;;;;;;;5.32;2.95;;;4.40;99.90;;;3.96;100.00;103203.56;5134029;28;20500;-56
2023/01/24 10:11:16;;;;;;;6.80;3.20;;;4.40;99.90;;;3.96;100.00;103201.00;5122652;28;20075;-55
2023/01/24 10:14:24;;;;;;;5.65;3.45;;;4.40;99.90;;;4.03;100.00;103208.59;5123589;28;20135;-55
2023/01/24 10:17:25;;;;;;;4.70;2.50;;;4.40;99.90;;;4.12;100.00;103212.84;5112362;28;20070;-57
2023/01/24 10:20:25;;;;;;;;;;;4.40;99.90;;;4.12;100.00;103220.59;5128166;28;20050;-55
2023/01/24 10:23:06;;;;;;;5.82;2.83;;;4.50;99.90;;;4.06;100.00;103218.31;5142267;28;20307;-56
2023/01/24 10:25:56;;;;;;;6.85;3.33;;;4.50;99.90;;;4.03;100.00;103210.25;5126243;28;20440;-56
2023/01/24 10:28:34;;;;;;;5.45;3.10;;;4.40;99.90;;;4.05;100.00;103212.25;5125680;28;20051;-57
2023/01/24 10:31:14;;;;;;;7.13;4.07;;;4.40;99.90;;;4.01;100.00;103216.94;5130685;28;20094;-58
2023/01/24 10:33:50;;;;;;;6.28;3.50;;;4.40;99.90;;;3.98;100.00;103208.91;5129924;28;20054;-56
2023/01/24 10:36:31;;;;;;;6.35;3.40;;;4.40;99.90;;;4.02;100.00;103214.50;5126329;28;20051;-56
2023/01/24 10:39:03;;;;;;;6.53;3.85;;;4.40;99.90;;;4.06;100.00;103214.06;5127262;28;20451;-56
2023/01/24 10:41:35;;;;;;;6.10;3.45;;;4.40;99.90;;;4.08;100.00;103207.38;5128590;28;20491;-57
2023/01/24 10:44:15;;;;;;;5.40;3.28;;;4.50;99.90;;;4.09;100.00;103211.78;5128232;28;20500;-57
2023/01/24 10:47:32;;;;;;;6.82;3.53;;;4.50;99.90;;;4.15;100.00;103208.91;5125951;28;20497;-56
2023/01/24 10:50:11;;;;;;;5.78;3.10;;;4.50;99.90;;;4.14;100.00;103201.00;5109389;28;20062;-55
2023/01/24 10:52:46;;;;;;;6.90;3.50;;;4.50;99.90;;;4.13;100.00;103204.34;5126032;28;20405;-55
2023/01/24 10:55:34;;;;;;;6.40;3.50;;;4.50;99.90;;;4.08;100.00;103191.88;5126137;28;20051;-56
2023/01/24 10:58:22;;;;;;;6.07;3.70;;;4.50;99.90;;;4.06;100.00;103190.84;5128015;28;20047;-55
2023/01/24 11:00:59;;;;;;;6.93;3.88;;;4.50;99.90;;;4.11;100.00;103195.53;5124512;28;20048;-57
2023/01/24 11:03:34;;;;;;;5.30;3.33;;;4.50;99.90;;;4.11;100.00;103195.53;5125257;28;20043;-55
2023/01/24 11:06:26;;;;;;;6.68;3.33;;;4.50;99.90;;;4.15;100.00;103187.31;5125412;28;20094;-57
2023/01/24 11:09:04;;;;;;;6.05;3.78;;;4.50;99.90;;;4.18;100.00;103190.22;5143421;28;20058;-56
2023/01/24 11:11:43;;;;;;;8.18;3.72;;;4.50;99.90;;;4.19;100.00;103186.88;5145547;28;20595;-57
2023/01/24 11:14:18;;;;;;;7.25;3.60;;;4.50;99.90;;;4.21;100.00;103182.78;5143902;28;20116;-57
2023/01/24 11:16:54;;;;;;;8.75;3.95;;;4.60;99.90;;;4.21;100.00;103180.19;5144974;28;20078;-57
2023/01/24 11:19:30;;;;;;;7.00;3.72;;;4.50;99.90;;;4.13;100.00;103183.69;5144843;28;20039;-55
2023/01/24 11:22:21;;;;;;;5.25;3.17;;;4.50;99.90;;;4.07;100.00;103182.31;5145082;28;20305;-55
2023/01/24 11:24:59;;;;;;;8.18;3.42;;;4.50;99.90;;;4.09;100.00;103188.53;5140952;28;20051;-57
2023/01/24 11:27:32;;;;;;;6.38;3.40;;;4.50;99.90;;;4.10;100.00;103184.28;5135297;28;20051;-57
2023/01/24 11:30:16;;;;;;;5.93;3.40;;;4.50;99.90;;;4.16;100.00;103183.97;5134057;28;20046;-55
2023/01/24 11:33:10;;;;;;;14.43;6.25;;;4.50;99.90;;;4.23;100.00;103186.41;5143115;28;20070;-55
2023/01/24 11:35:47;;;;;;;15.18;7.15;;;4.50;99.90;;;4.24;100.00;103180.50;5145277;28;20058;-56
2023/01/24 11:38:29;;;;;;;36.67;14.45;;;4.50;99.90;;;4.27;100.00;103183.38;5145366;28;20046;-55
2023/01/24 11:41:11;;;;;;;14.32;6.30;;;4.60;99.90;;;4.31;100.00;103182.94;5144741;28;20043;-55